createdAt,value
2023-02-01T00:00:39.183Z,0.19
2023-02-01T00:03:07.260Z,0.34
2023-02-01T00:05:34.661Z,0.16
2023-02-01T00:08:01.884Z,0.26
2023-02-01T00:10:29.541Z,0.22
2023-02-01T00:12:56.895Z,0.00
2023-02-01T00:15:24.328Z,-0.09
2023-02-01T00:17:56.227Z,-0.20
2023-02-01T00:20:23.665Z,-0.13
2023-02-01T00:22:51.115Z,-0.15
2023-02-01T00:25:18.893Z,-0.20
2023-02-01T00:27:50.798Z,-0.31
2023-02-01T00:30:19.554Z,-0.31
2023-02-01T00:32:47.496Z,-0.23
2023-02-01T00:35:14.769Z,-0.14
2023-02-01T00:37:42.059Z,-0.22
2023-02-01T00:40:10.337Z,-0.27
2023-02-01T00:42:37.762Z,-0.12
2023-02-01T00:45:05.582Z,-0.12
2023-02-01T00:47:33.443Z,0.02
2023-02-01T00:50:00.697Z,-0.15
2023-02-01T00:52:29.644Z,-0.19
2023-02-01T00:54:57.461Z,-0.18
2023-02-01T00:57:24.872Z,-0.11
2023-02-01T00:59:52.707Z,0.01
2023-02-01T01:02:20.344Z,-0.14
2023-02-01T01:04:47.874Z,0.03
2023-02-01T01:07:15.444Z,0.07
2023-02-01T01:09:43.042Z,-0.02
2023-02-01T01:12:11.705Z,0.06
2023-02-01T01:14:39.024Z,0.21
2023-02-01T01:17:06.631Z,-0.05
2023-02-01T01:19:33.940Z,-0.03
2023-02-01T01:22:01.254Z,0.27
2023-02-01T01:24:28.911Z,0.15
2023-02-01T01:26:57.028Z,-0.03
2023-02-01T01:29:24.348Z,-0.17
2023-02-01T01:31:51.930Z,-0.24
2023-02-01T01:34:19.143Z,-0.25
2023-02-01T01:36:46.442Z,-0.15
2023-02-01T01:39:14.161Z,-0.19
2023-02-01T01:41:41.500Z,-0.28
2023-02-01T01:44:49.535Z,-0.34
2023-02-01T01:47:18.785Z,-0.27
2023-02-01T01:49:46.301Z,-0.26
2023-02-01T01:52:15.531Z,-0.26
2023-02-01T01:54:48.639Z,-0.13
2023-02-01T01:57:24.400Z,-0.23
2023-02-01T02:00:02.656Z,-0.27
2023-02-01T02:02:44.241Z,-0.08
2023-02-01T02:05:13.899Z,-0.27
2023-02-01T02:07:43.422Z,-0.24
2023-02-01T02:10:12.891Z,-0.33
2023-02-01T02:12:43.792Z,-0.25
2023-02-01T02:15:13.959Z,-0.43
2023-02-01T02:17:59.365Z,-0.34
2023-02-01T02:20:48.680Z,-0.39
2023-02-01T02:23:31.393Z,-0.30
2023-02-01T02:26:26.574Z,-0.28
2023-02-01T02:29:25.412Z,-0.15
2023-02-01T02:32:23.176Z,-0.30
2023-02-01T02:34:57.620Z,-0.37
2023-02-01T02:38:03.466Z,-0.12
2023-02-01T02:40:46.860Z,-0.29
2023-02-01T02:43:44.023Z,-0.20
2023-02-01T02:46:44.605Z,-0.36
2023-02-01T02:49:22.060Z,-0.27
2023-02-01T02:52:33.876Z,-0.37
2023-02-01T02:55:04.789Z,-0.24
2023-02-01T02:57:56.588Z,-0.06
2023-02-01T03:00:49.295Z,-0.20
2023-02-01T03:03:35.399Z,-0.38
2023-02-01T03:06:03.003Z,-0.38
2023-02-01T03:08:32.369Z,-0.27
2023-02-01T03:11:03.625Z,-0.15
2023-02-01T03:13:54.300Z,-0.11
2023-02-01T03:16:46.504Z,-0.18
2023-02-01T03:19:23.121Z,-0.28
2023-02-01T03:22:12.096Z,-0.42
2023-02-01T03:24:48.163Z,-0.28
2023-02-01T03:27:36.076Z,-0.25
2023-02-01T03:30:31.115Z,-0.10
2023-02-01T03:33:04.135Z,-0.31
2023-02-01T03:35:56.168Z,-0.38
2023-02-01T03:38:36.561Z,-0.34
2023-02-01T03:41:18.405Z,-0.38
2023-02-01T03:43:55.202Z,-0.37
2023-02-01T03:46:47.564Z,-0.46
2023-02-01T03:49:23.299Z,-0.50
2023-02-01T03:51:52.822Z,-0.41
2023-02-01T03:54:20.776Z,-0.40
2023-02-01T03:56:49.507Z,-0.41
2023-02-01T03:59:17.329Z,-0.22
2023-02-01T04:01:44.621Z,-0.13
2023-02-01T04:04:12.293Z,-0.19
2023-02-01T04:06:39.816Z,-0.11
2023-02-01T04:09:07.169Z,-0.23
2023-02-01T04:11:34.719Z,0.02
2023-02-01T04:14:05.588Z,0.19
2023-02-01T04:16:33.652Z,0.14
2023-02-01T04:19:02.051Z,0.13
2023-02-01T04:21:29.903Z,0.08
2023-02-01T04:23:57.196Z,0.25
2023-02-01T04:26:24.963Z,0.22
2023-02-01T04:28:53.914Z,0.38
2023-02-01T04:31:28.616Z,0.19
2023-02-01T04:33:58.670Z,0.11
2023-02-01T04:36:26.156Z,0.24
2023-02-01T04:38:54.010Z,0.07
2023-02-01T04:41:23.817Z,-0.01
2023-02-01T04:43:53.133Z,0.08
2023-02-01T04:46:20.524Z,0.08
2023-02-01T04:48:48.226Z,-0.10
2023-02-01T04:51:16.305Z,-0.12
2023-02-01T04:53:43.888Z,-0.11
2023-02-01T04:56:11.723Z,-0.03
2023-02-01T04:58:39.006Z,-0.01
2023-02-01T05:01:07.599Z,-0.06
2023-02-01T05:03:36.440Z,-0.04
2023-02-01T05:06:05.937Z,-0.06
2023-02-01T05:08:33.721Z,0.00
2023-02-01T05:11:03.703Z,0.08
2023-02-01T05:13:50.423Z,0.08
2023-02-01T05:16:18.178Z,0.10
2023-02-01T05:18:45.759Z,0.27
2023-02-01T05:21:14.118Z,0.23
2023-02-01T05:24:05.438Z,0.23
2023-02-01T05:26:33.103Z,0.05
2023-02-01T05:29:00.851Z,-0.03
2023-02-01T05:31:28.318Z,0.01
2023-02-01T05:33:55.675Z,-0.07
2023-02-01T05:36:23.605Z,-0.05
2023-02-01T05:38:50.817Z,-0.06
2023-02-01T05:41:18.655Z,0.10
2023-02-01T05:43:46.534Z,0.07
2023-02-01T05:46:15.246Z,0.29
2023-02-01T05:48:43.453Z,0.09
2023-02-01T05:51:12.568Z,0.01
2023-02-01T05:53:39.862Z,0.12
2023-02-01T05:56:07.627Z,0.10
2023-02-01T05:58:35.473Z,0.13
2023-02-01T06:01:04.351Z,0.23
2023-02-01T06:03:32.141Z,0.17
2023-02-01T06:05:59.501Z,0.24
2023-02-01T06:08:26.933Z,0.09
2023-02-01T06:11:02.802Z,0.12
2023-02-01T06:13:30.887Z,0.39
2023-02-01T06:15:59.779Z,0.53
2023-02-01T06:18:27.206Z,0.44
2023-02-01T06:20:55.957Z,0.38
2023-02-01T06:23:25.057Z,0.39
2023-02-01T06:26:08.955Z,0.40
2023-02-01T06:28:36.764Z,0.43
2023-02-01T06:31:08.748Z,0.48
2023-02-01T06:33:37.538Z,0.67
2023-02-01T06:36:07.694Z,0.53
2023-02-01T06:38:36.232Z,0.56
2023-02-01T06:41:04.746Z,0.63
2023-02-01T06:43:33.950Z,0.63
2023-02-01T06:46:03.953Z,0.87
2023-02-01T06:48:32.423Z,0.71
2023-02-01T06:51:00.199Z,0.74
2023-02-01T06:53:28.680Z,0.82
2023-02-01T06:55:58.876Z,0.83
2023-02-01T06:58:30.009Z,0.99
2023-02-01T07:00:57.969Z,0.94
2023-02-01T07:03:25.635Z,0.86
2023-02-01T07:05:57.033Z,1.09
2023-02-01T07:08:24.869Z,1.09
2023-02-01T07:10:54.648Z,1.08
2023-02-01T07:13:21.907Z,1.23
2023-02-01T07:15:49.620Z,1.29
2023-02-01T07:18:17.043Z,1.11
2023-02-01T07:20:44.412Z,1.22
2023-02-01T07:23:12.481Z,1.14
2023-02-01T07:25:39.794Z,1.30
2023-02-01T07:28:07.071Z,1.14
2023-02-01T07:30:35.049Z,1.15
2023-02-01T07:33:02.392Z,1.27
2023-02-01T07:35:30.396Z,1.05
2023-02-01T07:38:00.943Z,1.09
2023-02-01T07:40:29.889Z,1.18
2023-02-01T07:42:57.575Z,1.19
2023-02-01T07:45:25.289Z,1.15
2023-02-01T07:47:54.083Z,1.16
2023-02-01T07:50:22.175Z,1.39
2023-02-01T07:52:49.661Z,1.48
2023-02-01T07:55:17.482Z,1.49
2023-02-01T07:57:45.310Z,1.50
2023-02-01T08:00:32.233Z,1.45
2023-02-01T08:03:00.768Z,1.54
2023-02-01T08:05:28.414Z,1.53
2023-02-01T08:07:55.776Z,1.56
2023-02-01T08:10:23.901Z,1.50
2023-02-01T08:12:53.037Z,1.55
2023-02-01T08:15:20.675Z,1.66
2023-02-01T08:17:52.398Z,1.67
2023-02-01T08:20:20.371Z,1.81
2023-02-01T08:22:48.245Z,1.87
2023-02-01T08:25:15.724Z,1.84
2023-02-01T08:27:44.010Z,1.71
2023-02-01T08:30:12.482Z,1.89
2023-02-01T08:32:40.290Z,1.88
2023-02-01T08:35:08.151Z,1.96
2023-02-01T08:37:36.114Z,1.75
2023-02-01T08:40:05.098Z,1.85
2023-02-01T08:42:51.125Z,1.76
2023-02-01T08:45:31.178Z,1.80
2023-02-01T08:47:58.886Z,1.84
2023-02-01T08:50:27.554Z,1.87
2023-02-01T08:52:54.967Z,1.75
2023-02-01T08:55:22.339Z,1.77
2023-02-01T08:57:50.045Z,2.03
2023-02-01T09:00:18.764Z,1.81
2023-02-01T09:02:46.740Z,1.73
2023-02-01T09:05:17.460Z,1.87
2023-02-01T09:07:44.853Z,1.97
2023-02-01T09:10:12.372Z,2.13
2023-02-01T09:12:40.141Z,2.13
2023-02-01T09:15:08.401Z,2.24
2023-02-01T09:17:35.951Z,2.35
2023-02-01T09:20:04.964Z,2.19
2023-02-01T09:22:32.315Z,2.44
2023-02-01T09:24:59.804Z,2.53
2023-02-01T09:27:27.573Z,2.58
2023-02-01T09:29:55.605Z,2.65
2023-02-01T09:32:25.100Z,2.68
2023-02-01T09:34:53.078Z,2.86
2023-02-01T09:37:20.836Z,2.92
2023-02-01T09:39:48.568Z,2.81
2023-02-01T09:42:34.275Z,2.72
2023-02-01T09:45:19.806Z,2.58
2023-02-01T09:47:53.032Z,2.70
2023-02-01T09:50:27.001Z,2.72
2023-02-01T09:53:12.042Z,2.61
2023-02-01T09:55:47.547Z,2.89
2023-02-01T09:58:21.494Z,3.31
2023-02-01T10:00:58.403Z,3.80
2023-02-01T10:03:30.330Z,4.05
2023-02-01T10:06:15.949Z,4.57
2023-02-01T10:08:52.401Z,4.50
2023-02-01T10:11:49.569Z,4.86
2023-02-01T10:14:29.511Z,4.84
2023-02-01T10:17:13.860Z,5.17
2023-02-01T10:20:06.267Z,5.05
2023-02-01T10:23:10.673Z,5.19
2023-02-01T10:25:44.950Z,5.52
2023-02-01T10:28:18.921Z,5.52
2023-02-01T10:30:48.683Z,5.62
2023-02-01T10:33:20.693Z,5.42
2023-02-01T10:35:57.024Z,5.37
2023-02-01T10:38:30.858Z,5.34
2023-02-01T10:41:04.363Z,5.33
2023-02-01T10:43:32.548Z,5.57
2023-02-01T10:46:00.311Z,5.58
2023-02-01T10:48:30.267Z,5.39
2023-02-01T10:51:14.228Z,5.04
2023-02-01T10:53:58.712Z,5.19
2023-02-01T10:56:28.561Z,5.72
2023-02-01T10:59:07.619Z,5.68
2023-02-01T11:01:43.296Z,5.29
2023-02-01T11:04:16.735Z,5.04
2023-02-01T11:06:46.383Z,5.04
2023-02-01T11:09:25.902Z,4.82
2023-02-01T11:11:53.142Z,4.97
2023-02-01T11:14:27.198Z,5.41
2023-02-01T11:16:58.448Z,5.27
2023-02-01T11:19:26.161Z,5.00
2023-02-01T11:21:56.151Z,4.90
2023-02-01T11:24:31.386Z,4.98
2023-02-01T11:27:01.951Z,4.58
2023-02-01T11:29:39.235Z,4.60
2023-02-01T11:32:09.695Z,4.58
2023-02-01T11:34:42.445Z,4.60
2023-02-01T11:37:30.362Z,4.31
2023-02-01T11:40:04.868Z,4.68
2023-02-01T11:42:33.294Z,4.75
2023-02-01T11:45:26.437Z,4.89
2023-02-01T11:47:55.762Z,5.40
2023-02-01T11:50:52.257Z,5.23
2023-02-01T11:53:42.525Z,5.26
2023-02-01T11:56:41.674Z,5.33
2023-02-01T11:59:27.339Z,5.67
2023-02-01T12:02:13.148Z,6.18
2023-02-01T12:04:53.089Z,6.45
2023-02-01T12:08:04.122Z,6.62
2023-02-01T12:10:41.108Z,7.13
2023-02-01T12:13:35.751Z,7.23
2023-02-01T12:16:39.120Z,7.00
2023-02-01T12:19:29.910Z,6.90
2023-02-01T12:22:03.829Z,6.96
2023-02-01T12:25:06.504Z,6.81
2023-02-01T12:27:43.196Z,6.76
2023-02-01T12:30:20.268Z,7.18
2023-02-01T12:32:48.280Z,7.08
2023-02-01T12:35:38.915Z,7.10
2023-02-01T12:38:17.862Z,7.47
2023-02-01T12:40:51.792Z,6.90
2023-02-01T12:43:57.827Z,7.43
2023-02-01T12:46:34.456Z,7.81
2023-02-01T12:49:11.938Z,7.69
2023-02-01T12:51:43.393Z,7.46
2023-02-01T12:54:21.953Z,7.85
2023-02-01T12:56:56.541Z,7.84
2023-02-01T13:00:00.176Z,7.58
2023-02-01T13:02:43.904Z,8.30
2023-02-01T13:05:20.478Z,8.01
2023-02-01T13:07:54.433Z,8.04
2023-02-01T13:10:30.409Z,8.07
2023-02-01T13:13:11.714Z,8.30
2023-02-01T13:15:45.199Z,8.04
2023-02-01T13:18:19.770Z,8.46
2023-02-01T13:20:55.891Z,7.98
2023-02-01T13:23:33.095Z,8.28
2023-02-01T13:26:00.857Z,8.38
2023-02-01T13:28:36.689Z,7.97
2023-02-01T13:31:24.438Z,8.19
2023-02-01T13:34:16.549Z,8.01
2023-02-01T13:37:03.032Z,8.31
2023-02-01T13:40:10.835Z,8.65
2023-02-01T13:43:01.418Z,8.60
2023-02-01T13:45:32.392Z,8.44
2023-02-01T13:48:03.968Z,8.74
2023-02-01T13:50:31.342Z,9.04
2023-02-01T13:53:16.794Z,9.57
2023-02-01T13:55:57.999Z,9.82
2023-02-01T13:58:41.133Z,10.42
2023-02-01T14:01:24.464Z,9.96
2023-02-01T14:03:54.522Z,9.50
2023-02-01T14:06:28.633Z,8.45
2023-02-01T14:09:14.706Z,7.59
2023-02-01T14:11:54.724Z,7.45
2023-02-01T14:14:22.386Z,7.13
2023-02-01T14:16:55.901Z,7.13
2023-02-01T14:19:35.736Z,6.70
2023-02-01T14:22:26.102Z,6.84
2023-02-01T14:24:57.588Z,6.90
2023-02-01T14:27:28.601Z,6.75
2023-02-01T14:30:03.283Z,6.58
2023-02-01T14:32:37.861Z,6.40
2023-02-01T14:35:27.197Z,6.31
2023-02-01T14:38:03.802Z,6.27
2023-02-01T14:40:32.355Z,5.94
2023-02-01T14:42:59.740Z,6.10
2023-02-01T14:45:28.569Z,6.02
2023-02-01T14:48:16.211Z,5.80
2023-02-01T14:50:48.111Z,5.70
2023-02-01T14:53:22.735Z,5.43
2023-02-01T14:56:08.469Z,5.27
2023-02-01T14:58:40.568Z,5.28
2023-02-01T15:01:30.469Z,5.12
2023-02-01T15:04:01.965Z,5.03
2023-02-01T15:06:39.009Z,5.19
2023-02-01T15:09:09.736Z,5.30
2023-02-01T15:12:11.898Z,5.21
2023-02-01T15:14:50.164Z,5.11
2023-02-01T15:17:38.337Z,5.24
2023-02-01T15:20:19.060Z,5.23
2023-02-01T15:22:57.287Z,5.03
2023-02-01T15:25:30.995Z,4.64
2023-02-01T15:27:58.948Z,4.64
2023-02-01T15:30:29.678Z,4.48
2023-02-01T15:33:16.372Z,4.57
2023-02-01T15:35:47.284Z,4.40
2023-02-01T15:38:29.822Z,4.57
2023-02-01T15:41:16.663Z,4.68
2023-02-01T15:43:46.516Z,4.66
2023-02-01T15:46:23.510Z,4.62
2023-02-01T15:48:54.298Z,4.58
2023-02-01T15:51:24.961Z,4.64
2023-02-01T15:53:57.389Z,4.69
2023-02-01T15:56:29.367Z,4.52
2023-02-01T15:59:00.348Z,4.44
2023-02-01T16:01:28.150Z,4.45
2023-02-01T16:04:18.488Z,4.40
2023-02-01T16:06:53.137Z,4.57
2023-02-01T16:09:24.883Z,4.51
2023-02-01T16:11:56.667Z,4.48
2023-02-01T16:14:25.307Z,4.49
2023-02-01T16:16:54.559Z,4.63
2023-02-01T16:19:24.483Z,4.51
2023-02-01T16:21:52.570Z,4.52
2023-02-01T16:24:19.941Z,4.59
2023-02-01T16:26:47.283Z,4.44
2023-02-01T16:29:16.498Z,4.63
2023-02-01T16:31:44.087Z,4.65
2023-02-01T16:34:19.096Z,4.45
2023-02-01T16:36:56.750Z,4.51
2023-02-01T16:39:25.060Z,4.62
2023-02-01T16:41:52.799Z,4.41
2023-02-01T16:44:20.617Z,4.00
2023-02-01T16:46:49.674Z,3.78
2023-02-01T16:49:20.132Z,4.10
2023-02-01T16:51:48.656Z,4.01
2023-02-01T16:54:16.001Z,3.96
2023-02-01T16:56:45.600Z,3.92
2023-02-01T16:59:12.865Z,4.03
2023-02-01T17:01:42.572Z,3.84
2023-02-01T17:04:11.308Z,3.91
2023-02-01T17:06:39.371Z,4.04
2023-02-01T17:09:07.562Z,4.08
2023-02-01T17:11:35.833Z,4.15
2023-02-01T17:14:22.707Z,3.91
2023-02-01T17:16:51.720Z,4.16
2023-02-01T17:19:24.579Z,4.15
2023-02-01T17:21:56.958Z,4.01
2023-02-01T17:24:30.701Z,3.85
2023-02-01T17:27:04.676Z,3.81
2023-02-01T17:29:32.065Z,3.69
2023-02-01T17:32:00.745Z,3.70
2023-02-01T17:34:28.751Z,3.52
2023-02-01T17:36:56.195Z,3.36
2023-02-01T17:39:42.140Z,3.35
2023-02-01T17:42:12.332Z,3.34
2023-02-01T17:44:39.733Z,2.98
2023-02-01T17:47:07.131Z,2.86
2023-02-01T17:49:36.065Z,2.76
2023-02-01T17:52:03.609Z,2.80
2023-02-01T17:54:30.981Z,2.94
2023-02-01T17:57:03.626Z,2.76
2023-02-01T17:59:30.979Z,2.90
2023-02-01T18:02:01.177Z,2.58
2023-02-01T18:04:28.913Z,2.58
2023-02-01T18:06:57.905Z,2.39
2023-02-01T18:09:25.539Z,2.15
2023-02-01T18:11:55.443Z,1.75
2023-02-01T18:14:22.872Z,1.69
2023-02-01T18:16:50.321Z,1.79
2023-02-01T18:19:18.061Z,1.84
2023-02-01T18:21:45.493Z,1.72
2023-02-01T18:24:17.405Z,1.77
2023-02-01T18:26:45.305Z,1.50
2023-02-01T18:29:12.745Z,1.28
2023-02-01T18:31:49.948Z,1.49
2023-02-01T18:34:22.679Z,1.55
2023-02-01T18:36:50.744Z,1.31
2023-02-01T18:39:18.623Z,1.72
2023-02-01T18:41:48.878Z,1.69
2023-02-01T18:44:17.394Z,1.58
2023-02-01T18:46:45.339Z,1.43
2023-02-01T18:49:14.154Z,1.52
2023-02-01T18:51:43.648Z,1.59
2023-02-01T18:54:12.468Z,1.46
2023-02-01T18:56:40.317Z,1.54
2023-02-01T18:59:07.673Z,1.43
2023-02-01T19:01:35.396Z,1.03
2023-02-01T19:04:10.831Z,1.23
2023-02-01T19:06:45.649Z,1.00
2023-02-01T19:09:12.914Z,1.12
2023-02-01T19:11:40.365Z,1.09
2023-02-01T19:14:08.318Z,1.25
2023-02-01T19:16:40.061Z,1.01
2023-02-01T19:19:07.740Z,0.99
2023-02-01T19:21:35.095Z,1.25
2023-02-01T19:24:02.366Z,1.47
2023-02-01T19:26:29.985Z,1.45
2023-02-01T19:28:58.945Z,1.73
2023-02-01T19:31:26.475Z,1.97
2023-02-01T19:33:55.047Z,2.08
2023-02-01T19:36:22.653Z,2.20
2023-02-01T19:38:49.976Z,2.42
2023-02-01T19:41:17.773Z,2.35
2023-02-01T19:43:45.172Z,2.48
2023-02-01T19:46:13.066Z,2.47
2023-02-01T19:48:41.015Z,2.63
2023-02-01T19:51:09.443Z,2.55
2023-02-01T19:53:36.817Z,2.42
2023-02-01T19:56:04.760Z,2.56
2023-02-01T19:58:32.522Z,2.29
2023-02-01T20:01:01.631Z,2.19
2023-02-01T20:03:29.335Z,2.33
2023-02-01T20:05:58.778Z,2.37
2023-02-01T20:08:26.198Z,2.31
2023-02-01T20:10:54.228Z,2.53
2023-02-01T20:13:21.703Z,2.39
2023-02-01T20:15:49.198Z,2.15
2023-02-01T20:18:16.947Z,1.96
2023-02-01T20:20:44.558Z,1.95
2023-02-01T20:23:11.851Z,2.02
2023-02-01T20:25:41.402Z,1.93
2023-02-01T20:28:09.164Z,2.12
2023-02-01T20:30:36.651Z,2.09
2023-02-01T20:33:04.252Z,1.80
2023-02-01T20:35:33.315Z,1.68
2023-02-01T20:38:02.030Z,1.58
2023-02-01T20:40:31.146Z,1.02
2023-02-01T20:42:58.829Z,1.34
2023-02-01T20:45:27.296Z,1.18
2023-02-01T20:47:55.457Z,1.41
2023-02-01T20:50:22.911Z,1.57
2023-02-01T20:52:50.424Z,1.22
2023-02-01T20:55:18.113Z,1.31
2023-02-01T20:57:45.557Z,1.48
2023-02-01T21:00:13.631Z,1.43
2023-02-01T21:02:41.386Z,1.46
2023-02-01T21:05:09.547Z,1.51
2023-02-01T21:07:38.240Z,1.55
2023-02-01T21:10:06.687Z,1.47
2023-02-01T21:12:34.773Z,1.42
2023-02-01T21:15:02.489Z,1.54
2023-02-01T21:17:31.945Z,1.42
2023-02-01T21:19:59.882Z,1.39
2023-02-01T21:22:27.330Z,1.40
2023-02-01T21:24:55.143Z,1.40
2023-02-01T21:27:22.648Z,1.47
2023-02-01T21:29:49.975Z,1.58
2023-02-01T21:32:17.674Z,1.21
2023-02-01T21:34:45.065Z,1.40
2023-02-01T21:37:12.503Z,1.51
2023-02-01T21:39:40.246Z,1.29
2023-02-01T21:42:14.944Z,1.59
2023-02-01T21:44:43.492Z,1.81
2023-02-01T21:47:11.251Z,1.59
2023-02-01T21:49:38.653Z,1.61
2023-02-01T21:52:07.461Z,1.69
2023-02-01T21:54:34.941Z,1.70
2023-02-01T21:57:02.935Z,1.81
2023-02-01T21:59:31.815Z,1.86
2023-02-01T22:01:59.250Z,1.77
2023-02-01T22:04:26.897Z,1.91
2023-02-01T22:06:54.372Z,1.97
2023-02-01T22:09:23.844Z,1.91
2023-02-01T22:11:53.282Z,1.66
2023-02-01T22:14:21.340Z,1.93
2023-02-01T22:16:49.259Z,1.89
2023-02-01T22:19:17.689Z,1.86
2023-02-01T22:21:47.413Z,1.84
2023-02-01T22:24:17.064Z,1.96
2023-02-01T22:26:45.695Z,1.93
2023-02-01T22:29:14.912Z,1.89
2023-02-01T22:31:43.229Z,1.90
2023-02-01T22:34:12.271Z,1.96
2023-02-01T22:36:41.382Z,1.96
2023-02-01T22:39:08.957Z,2.05
2023-02-01T22:41:36.672Z,1.99
2023-02-01T22:44:04.314Z,2.03
2023-02-01T22:46:31.640Z,1.91
2023-02-01T22:49:00.301Z,2.09
2023-02-01T22:51:31.082Z,1.88
2023-02-01T22:53:59.517Z,1.98
2023-02-01T22:56:28.495Z,1.93
2023-02-01T22:59:00.155Z,2.12
2023-02-01T23:01:29.005Z,1.96
2023-02-01T23:03:58.582Z,1.80
2023-02-01T23:06:27.028Z,1.63
2023-02-01T23:09:00.281Z,1.71
2023-02-01T23:11:28.653Z,1.58
2023-02-01T23:13:57.236Z,1.82
2023-02-01T23:16:24.929Z,1.80
2023-02-01T23:18:52.438Z,1.90
2023-02-01T23:21:22.297Z,1.95
2023-02-01T23:23:53.234Z,1.70
2023-02-01T23:26:22.539Z,1.82
2023-02-01T23:28:55.145Z,1.84
2023-02-01T23:31:25.378Z,1.74
2023-02-01T23:33:56.861Z,1.89
2023-02-01T23:36:27.338Z,1.93
2023-02-01T23:38:55.224Z,1.84
2023-02-01T23:41:24.292Z,1.95
2023-02-01T23:44:01.215Z,2.16
2023-02-01T23:46:34.529Z,2.02
2023-02-01T23:49:04.875Z,1.92
2023-02-01T23:51:32.392Z,1.95
2023-02-01T23:54:00.197Z,2.04
2023-02-01T23:56:34.116Z,1.90
2023-02-01T23:59:04.518Z,1.96
